createdAt,value
2023-03-03T00:01:45.693Z,86.67
2023-03-03T00:04:13.348Z,92.83
2023-03-03T00:06:41.002Z,93.60
2023-03-03T00:09:09.991Z,88.50
2023-03-03T00:11:37.670Z,84.77
2023-03-03T00:14:19.598Z,91.60
2023-03-03T00:16:49.120Z,87.53
2023-03-03T00:19:20.261Z,89.27
2023-03-03T00:21:49.821Z,91.93
2023-03-03T00:24:24.039Z,91.00
2023-03-03T00:26:55.415Z,96.87
2023-03-03T00:29:36.613Z,89.13
2023-03-03T00:32:19.387Z,81.90
2023-03-03T00:34:47.858Z,82.07
2023-03-03T00:37:26.608Z,88.90
2023-03-03T00:40:03.549Z,88.43
2023-03-03T00:42:35.504Z,86.97
2023-03-03T00:45:03.937Z,85.03
2023-03-03T00:47:32.765Z,88.73
2023-03-03T00:50:27.140Z,81.83
2023-03-03T00:53:01.849Z,79.70
2023-03-03T00:55:31.957Z,74.10
2023-03-03T00:57:59.778Z,80.20
2023-03-03T01:00:34.188Z,82.90
2023-03-03T01:03:05.362Z,76.70
2023-03-03T01:05:33.675Z,74.77
2023-03-03T01:08:01.835Z,75.53
2023-03-03T01:10:33.594Z,77.63
2023-03-03T01:13:01.344Z,76.87
2023-03-03T01:15:29.226Z,69.10
2023-03-03T01:17:57.172Z,80.10
2023-03-03T01:20:25.029Z,72.63
2023-03-03T01:22:52.811Z,70.20
2023-03-03T01:25:20.490Z,72.23
2023-03-03T01:27:49.515Z,74.20
2023-03-03T01:30:17.567Z,72.60
2023-03-03T01:32:45.304Z,63.20
2023-03-03T01:35:13.169Z,66.13
2023-03-03T01:37:41.205Z,59.73
2023-03-03T01:40:15.690Z,65.43
2023-03-03T01:42:43.500Z,59.73
2023-03-03T01:45:17.016Z,57.13
2023-03-03T01:47:49.722Z,55.50
2023-03-03T01:50:27.608Z,51.80
2023-03-03T01:52:56.005Z,54.30
2023-03-03T01:55:27.024Z,53.77
2023-03-03T01:57:59.687Z,52.27
2023-03-03T02:00:29.741Z,59.47
2023-03-03T02:02:57.757Z,61.57
2023-03-03T02:05:26.025Z,55.73
2023-03-03T02:07:54.328Z,59.73
2023-03-03T02:10:22.876Z,58.07
2023-03-03T02:12:52.777Z,61.50
2023-03-03T02:15:22.650Z,57.93
2023-03-03T02:17:54.476Z,56.87
2023-03-03T02:20:34.798Z,52.80
2023-03-03T02:23:12.320Z,53.73
2023-03-03T02:25:47.933Z,55.03
2023-03-03T02:28:17.207Z,52.07
2023-03-03T02:30:45.186Z,55.50
2023-03-03T02:33:12.817Z,49.63
2023-03-03T02:35:41.864Z,51.87
2023-03-03T02:38:19.016Z,51.47
2023-03-03T02:40:53.002Z,52.03
2023-03-03T02:43:26.425Z,50.80
2023-03-03T02:45:54.128Z,49.07
2023-03-03T02:48:21.739Z,53.67
2023-03-03T02:50:49.444Z,55.87
2023-03-03T02:53:17.089Z,56.50
2023-03-03T02:55:44.865Z,58.87
2023-03-03T02:58:12.519Z,59.07
2023-03-03T03:00:41.591Z,56.93
2023-03-03T03:03:09.323Z,63.80
2023-03-03T03:05:39.437Z,65.40
2023-03-03T03:08:07.577Z,65.53
2023-03-03T03:10:35.500Z,72.83
2023-03-03T03:13:03.467Z,70.50
2023-03-03T03:15:31.307Z,68.30
2023-03-03T03:18:00.580Z,73.63
2023-03-03T03:20:28.721Z,71.90
2023-03-03T03:22:56.376Z,76.70
2023-03-03T03:25:24.322Z,87.70
2023-03-03T03:27:52.605Z,75.03
2023-03-03T03:30:22.443Z,82.27
2023-03-03T03:32:50.403Z,72.33
2023-03-03T03:35:20.304Z,84.33
2023-03-03T03:37:48.026Z,79.53
2023-03-03T03:40:15.952Z,75.40
2023-03-03T03:42:43.555Z,72.53
2023-03-03T03:45:15.230Z,82.00
2023-03-03T03:47:45.042Z,72.27
2023-03-03T03:50:14.805Z,74.87
2023-03-03T03:52:44.777Z,80.13
2023-03-03T03:55:13.658Z,79.97
2023-03-03T03:57:41.992Z,74.23
2023-03-03T04:00:12.360Z,76.13
2023-03-03T04:02:50.075Z,81.17
2023-03-03T04:05:19.538Z,72.80
2023-03-03T04:07:48.941Z,73.40
2023-03-03T04:10:19.175Z,68.93
2023-03-03T04:12:47.921Z,62.47
2023-03-03T04:15:16.337Z,67.80
2023-03-03T04:17:44.993Z,74.37
2023-03-03T04:20:15.367Z,78.63
2023-03-03T04:22:45.210Z,69.53
2023-03-03T04:25:16.956Z,73.20
2023-03-03T04:27:46.517Z,70.23
2023-03-03T04:30:17.288Z,79.53
2023-03-03T04:32:49.592Z,64.43
2023-03-03T04:35:20.794Z,65.37
2023-03-03T04:37:48.491Z,72.67
2023-03-03T04:40:18.884Z,72.93
2023-03-03T04:42:48.986Z,72.27
2023-03-03T04:45:16.803Z,69.10
2023-03-03T04:47:46.970Z,80.77
2023-03-03T04:50:15.127Z,70.37
2023-03-03T04:52:43.498Z,72.37
2023-03-03T04:55:14.075Z,71.10
2023-03-03T04:57:43.804Z,67.80
2023-03-03T05:00:13.400Z,69.60
2023-03-03T05:02:41.384Z,65.67
2023-03-03T05:05:11.157Z,66.73
2023-03-03T05:07:38.826Z,59.50
2023-03-03T05:10:07.797Z,67.40
2023-03-03T05:12:35.398Z,68.20
2023-03-03T05:15:05.058Z,57.17
2023-03-03T05:17:32.769Z,64.23
2023-03-03T05:20:00.354Z,58.50
2023-03-03T05:22:28.525Z,60.97
2023-03-03T05:24:56.130Z,61.90
2023-03-03T05:27:23.731Z,65.63
2023-03-03T05:29:51.581Z,54.67
2023-03-03T05:32:20.578Z,62.30
2023-03-03T05:34:48.294Z,59.53
2023-03-03T05:37:16.318Z,51.63
2023-03-03T05:39:44.630Z,58.27
2023-03-03T05:42:13.936Z,55.03
2023-03-03T05:44:41.855Z,58.37
2023-03-03T05:47:09.745Z,57.20
2023-03-03T05:49:39.110Z,61.50
2023-03-03T05:52:06.978Z,54.73
2023-03-03T05:54:34.703Z,57.60
2023-03-03T05:57:03.019Z,57.90
2023-03-03T05:59:30.763Z,52.57
2023-03-03T06:01:58.706Z,54.87
2023-03-03T06:04:26.650Z,49.93
2023-03-03T06:06:55.738Z,55.13
2023-03-03T06:09:23.584Z,49.63
2023-03-03T06:11:52.817Z,50.63
2023-03-03T06:14:21.023Z,44.13
2023-03-03T06:16:48.741Z,55.70
2023-03-03T06:19:17.733Z,50.17
2023-03-03T06:21:45.573Z,50.10
2023-03-03T06:24:14.525Z,51.67
2023-03-03T06:26:42.207Z,49.00
2023-03-03T06:29:09.882Z,47.63
2023-03-03T06:31:37.677Z,46.87
2023-03-03T06:34:05.354Z,48.17
2023-03-03T06:36:32.993Z,51.30
2023-03-03T06:39:00.980Z,48.33
2023-03-03T06:41:30.236Z,53.90
2023-03-03T06:43:58.276Z,51.23
2023-03-03T06:46:25.948Z,57.03
2023-03-03T06:48:53.652Z,51.83
2023-03-03T06:51:26.669Z,52.87
2023-03-03T06:53:57.343Z,49.10
2023-03-03T06:56:25.384Z,55.23
2023-03-03T06:58:58.297Z,53.77
2023-03-03T07:01:26.257Z,54.33
2023-03-03T07:03:54.302Z,49.47
2023-03-03T07:06:25.329Z,46.83
2023-03-03T07:08:53.939Z,52.47
2023-03-03T07:11:23.844Z,54.23
2023-03-03T07:13:52.968Z,51.00
2023-03-03T07:16:26.441Z,56.77
2023-03-03T07:18:56.195Z,52.53
2023-03-03T07:21:26.481Z,52.83
2023-03-03T07:23:54.841Z,58.30
2023-03-03T07:26:26.065Z,56.93
2023-03-03T07:28:55.998Z,52.20
2023-03-03T07:31:31.332Z,51.87
2023-03-03T07:34:00.705Z,54.43
2023-03-03T07:36:31.370Z,58.03
2023-03-03T07:39:02.023Z,55.10
2023-03-03T07:41:30.820Z,62.33
2023-03-03T07:44:04.918Z,60.17
2023-03-03T07:46:42.595Z,63.37
2023-03-03T07:49:22.737Z,59.03
2023-03-03T07:51:54.943Z,64.17
2023-03-03T07:54:31.106Z,63.00
2023-03-03T07:57:03.117Z,69.63
2023-03-03T07:59:32.131Z,75.03
2023-03-03T08:02:01.447Z,83.10
2023-03-03T08:04:33.425Z,77.30
2023-03-03T08:07:03.114Z,74.80
2023-03-03T08:09:45.012Z,82.03
2023-03-03T08:12:35.009Z,87.60
2023-03-03T08:15:17.856Z,80.70
2023-03-03T08:17:48.186Z,81.40
2023-03-03T08:20:49.596Z,78.60
2023-03-03T08:23:19.020Z,85.93
2023-03-03T08:25:48.298Z,84.70
2023-03-03T08:28:16.487Z,83.80
2023-03-03T08:30:45.488Z,88.83
2023-03-03T08:33:15.202Z,93.57
2023-03-03T08:35:43.498Z,94.03
2023-03-03T08:38:12.241Z,91.83
2023-03-03T08:40:40.029Z,86.53
2023-03-03T08:43:07.953Z,90.73
2023-03-03T08:45:36.696Z,88.80
2023-03-03T08:48:06.109Z,99.43
2023-03-03T08:50:35.609Z,89.57
2023-03-03T08:53:03.589Z,96.53
2023-03-03T08:55:31.652Z,102.53
2023-03-03T08:57:59.696Z,103.97
2023-03-03T09:00:27.468Z,103.33
2023-03-03T09:02:56.643Z,107.77
2023-03-03T09:05:25.510Z,108.80
2023-03-03T09:07:55.239Z,110.80
2023-03-03T09:10:27.532Z,104.63
2023-03-03T09:12:58.169Z,115.60
2023-03-03T09:15:28.548Z,121.03
2023-03-03T09:17:59.670Z,122.37
2023-03-03T09:20:36.485Z,120.60
2023-03-03T09:23:30.243Z,135.83
2023-03-03T09:25:59.093Z,118.47
2023-03-03T09:28:28.901Z,125.70
2023-03-03T09:31:00.207Z,130.07
2023-03-03T09:33:33.493Z,131.50
2023-03-03T09:36:15.978Z,132.73
2023-03-03T09:38:46.787Z,139.30
2023-03-03T09:41:58.978Z,152.93
2023-03-03T09:44:45.727Z,139.60
2023-03-03T09:47:33.060Z,135.63
2023-03-03T09:50:08.915Z,132.90
2023-03-03T09:52:46.191Z,143.67
2023-03-03T09:55:30.156Z,140.73
2023-03-03T09:58:14.573Z,149.60
2023-03-03T10:00:55.835Z,140.40
2023-03-03T10:03:46.543Z,141.93
2023-03-03T10:06:23.086Z,157.57
2023-03-03T10:09:04.146Z,154.90
2023-03-03T10:11:41.694Z,165.63
2023-03-03T10:14:26.918Z,174.03
2023-03-03T10:17:18.972Z,170.63
2023-03-03T10:19:59.199Z,161.60
2023-03-03T10:22:42.114Z,173.37
2023-03-03T10:25:22.318Z,177.30
2023-03-03T10:28:05.034Z,169.40
2023-03-03T10:30:58.480Z,171.67
2023-03-03T10:33:39.042Z,162.77
2023-03-03T10:36:36.062Z,171.50
2023-03-03T10:39:39.736Z,181.37
2023-03-03T10:42:22.994Z,172.87
2023-03-03T10:45:05.789Z,171.83
2023-03-03T10:47:53.804Z,174.90
2023-03-03T10:50:28.061Z,184.13
2023-03-03T10:53:07.041Z,183.73
2023-03-03T10:55:43.672Z,182.10
2023-03-03T10:58:37.062Z,179.63
2023-03-03T11:01:19.187Z,186.67
2023-03-03T11:04:02.784Z,181.17
2023-03-03T11:06:39.599Z,175.47
2023-03-03T11:09:17.293Z,174.97
2023-03-03T11:11:53.316Z,173.00
2023-03-03T11:14:27.864Z,167.43
2023-03-03T11:17:02.694Z,159.27
2023-03-03T11:19:47.260Z,145.93
2023-03-03T11:22:26.400Z,159.53
2023-03-03T11:25:09.482Z,131.63
2023-03-03T11:27:56.122Z,144.10
2023-03-03T11:30:37.244Z,149.83
2023-03-03T11:33:10.701Z,144.13
2023-03-03T11:35:45.988Z,145.67
2023-03-03T11:38:26.760Z,145.47
2023-03-03T11:40:58.196Z,138.53
2023-03-03T11:43:36.939Z,147.73
2023-03-03T11:46:10.643Z,143.00
2023-03-03T11:48:47.551Z,142.57
2023-03-03T11:51:21.150Z,144.13
2023-03-03T11:53:58.892Z,122.73
2023-03-03T11:56:30.878Z,132.70
2023-03-03T11:59:20.199Z,132.67
2023-03-03T12:01:53.941Z,122.10
2023-03-03T12:04:30.752Z,123.07
2023-03-03T12:07:19.830Z,123.47
2023-03-03T12:10:00.134Z,112.53
2023-03-03T12:12:34.167Z,120.37
2023-03-03T12:15:10.167Z,112.33
2023-03-03T12:17:51.607Z,115.70
2023-03-03T12:20:31.406Z,118.07
2023-03-03T12:23:11.520Z,126.27
2023-03-03T12:25:43.487Z,119.50
2023-03-03T12:28:16.723Z,121.77
2023-03-03T12:31:04.470Z,110.93
2023-03-03T12:33:43.682Z,107.47
2023-03-03T12:36:20.050Z,111.10
2023-03-03T12:38:55.230Z,116.65
2023-03-03T12:41:28.944Z,109.50
2023-03-03T12:44:03.819Z,119.32
2023-03-03T12:46:41.661Z,111.67
2023-03-03T12:49:09.302Z,104.28
2023-03-03T12:51:48.792Z,93.70
2023-03-03T12:54:37.483Z,91.30
2023-03-03T12:57:16.052Z,79.68
2023-03-03T12:59:55.782Z,76.65
2023-03-03T13:02:42.548Z,72.85
2023-03-03T13:05:21.236Z,70.57
2023-03-03T13:07:57.643Z,73.78
2023-03-03T13:10:32.313Z,74.60
2023-03-03T13:13:05.408Z,66.78
2023-03-03T13:15:39.720Z,68.45
2023-03-03T13:18:35.503Z,66.80
2023-03-03T13:21:11.285Z,63.25
2023-03-03T13:23:48.866Z,58.28
2023-03-03T13:26:23.628Z,62.42
2023-03-03T13:29:03.621Z,63.20
2023-03-03T13:31:35.983Z,61.95
2023-03-03T13:34:04.079Z,61.08
2023-03-03T13:36:39.944Z,58.67
2023-03-03T13:39:18.918Z,52.88
2023-03-03T13:41:52.683Z,58.92
2023-03-03T13:44:26.630Z,56.47
2023-03-03T13:47:06.604Z,57.95
2023-03-03T13:49:48.838Z,57.70
2023-03-03T13:52:22.193Z,59.35
2023-03-03T13:55:13.891Z,61.17
2023-03-03T13:57:55.631Z,62.20
2023-03-03T14:00:33.334Z,56.58
2023-03-03T14:03:23.698Z,56.42
2023-03-03T14:05:52.580Z,55.33
2023-03-03T14:08:32.555Z,64.25
2023-03-03T14:11:11.117Z,57.08
2023-03-03T14:13:45.621Z,60.67
2023-03-03T14:16:20.577Z,63.80
2023-03-03T14:18:57.905Z,62.20
2023-03-03T14:21:30.746Z,59.05
2023-03-03T14:24:08.437Z,55.97
2023-03-03T14:26:49.483Z,60.47
2023-03-03T14:29:22.792Z,57.65
2023-03-03T14:31:50.712Z,63.33
2023-03-03T14:34:36.088Z,55.55
2023-03-03T14:37:22.940Z,60.60
2023-03-03T14:40:02.021Z,61.17
2023-03-03T14:42:38.038Z,61.22
2023-03-03T14:45:29.345Z,59.88
2023-03-03T14:48:11.901Z,60.78
2023-03-03T14:50:41.518Z,64.13
2023-03-03T14:53:23.759Z,66.82
2023-03-03T14:55:53.619Z,61.92
2023-03-03T14:58:29.540Z,64.00
2023-03-03T15:01:15.476Z,66.50
2023-03-03T15:03:49.133Z,56.88
2023-03-03T15:06:31.239Z,64.68
2023-03-03T15:09:24.810Z,70.00
2023-03-03T15:11:53.832Z,71.78
2023-03-03T15:14:31.154Z,70.30
2023-03-03T15:17:14.762Z,70.55
2023-03-03T15:19:48.785Z,67.85
2023-03-03T15:22:28.192Z,63.67
2023-03-03T15:25:02.060Z,60.45
2023-03-03T15:27:35.650Z,64.88
2023-03-03T15:30:16.089Z,60.17
2023-03-03T15:32:50.175Z,62.97
2023-03-03T15:35:32.089Z,60.93
2023-03-03T15:38:04.854Z,58.28
2023-03-03T15:40:40.913Z,55.93
2023-03-03T15:43:21.111Z,62.03
2023-03-03T15:45:59.602Z,62.55
2023-03-03T15:48:47.333Z,56.30
2023-03-03T15:51:24.772Z,54.50
2023-03-03T15:54:14.775Z,57.03
2023-03-03T15:56:50.749Z,49.67
2023-03-03T15:59:43.548Z,57.95
2023-03-03T16:02:18.089Z,53.65
2023-03-03T16:04:55.021Z,54.27
2023-03-03T16:07:37.172Z,53.17
2023-03-03T16:10:16.407Z,55.67
2023-03-03T16:12:53.006Z,55.40
2023-03-03T16:15:31.512Z,54.17
2023-03-03T16:18:09.629Z,53.40
2023-03-03T16:20:43.389Z,56.07
2023-03-03T16:23:21.636Z,47.38
2023-03-03T16:25:59.274Z,57.77
2023-03-03T16:28:36.507Z,52.17
2023-03-03T16:31:10.547Z,52.13
2023-03-03T16:33:50.467Z,50.10
2023-03-03T16:36:28.759Z,53.27
2023-03-03T16:39:04.157Z,54.80
2023-03-03T16:41:43.956Z,53.73
2023-03-03T16:44:25.062Z,52.77
2023-03-03T16:46:52.742Z,48.30
2023-03-03T16:49:28.299Z,55.93
2023-03-03T16:52:03.981Z,56.40
2023-03-03T16:54:40.247Z,52.77
2023-03-03T16:57:17.544Z,55.40
2023-03-03T17:00:03.009Z,55.37
2023-03-03T17:02:56.608Z,49.03
2023-03-03T17:05:37.896Z,53.93
2023-03-03T17:08:24.233Z,53.83
2023-03-03T17:10:57.407Z,55.00
2023-03-03T17:13:48.796Z,52.10
2023-03-03T17:16:23.430Z,53.37
2023-03-03T17:19:01.886Z,56.00
2023-03-03T17:21:40.199Z,56.03
2023-03-03T17:24:20.804Z,49.43
2023-03-03T17:26:58.866Z,47.97
2023-03-03T17:29:40.285Z,51.57
2023-03-03T17:32:22.659Z,57.00
2023-03-03T17:35:05.677Z,57.03
2023-03-03T17:37:44.716Z,52.27
2023-03-03T17:40:42.450Z,46.83
2023-03-03T17:43:16.435Z,50.07
2023-03-03T17:45:47.479Z,53.77
2023-03-03T17:48:39.252Z,51.43
2023-03-03T17:51:18.921Z,49.50
2023-03-03T17:54:04.032Z,55.57
2023-03-03T17:56:37.894Z,51.90
2023-03-03T17:59:19.786Z,54.60
2023-03-03T18:02:16.381Z,53.13
2023-03-03T18:05:07.010Z,53.50
2023-03-03T18:07:46.972Z,50.93
2023-03-03T18:10:49.975Z,57.00
2023-03-03T18:13:34.338Z,53.23
2023-03-03T18:16:17.563Z,60.50
2023-03-03T18:19:00.849Z,57.67
2023-03-03T18:21:35.179Z,54.93
2023-03-03T18:24:28.529Z,62.47
2023-03-03T18:27:13.345Z,62.00
2023-03-03T18:29:41.011Z,56.17
2023-03-03T18:32:22.844Z,64.00
2023-03-03T18:35:25.526Z,73.33
2023-03-03T18:37:53.837Z,65.13
2023-03-03T18:40:33.352Z,64.57
2023-03-03T18:43:41.733Z,64.83
2023-03-03T18:46:13.377Z,60.93
2023-03-03T18:48:50.319Z,71.70
2023-03-03T18:51:52.216Z,68.30
2023-03-03T18:54:33.287Z,64.03
2023-03-03T18:57:18.310Z,70.53
2023-03-03T19:00:02.008Z,71.27
2023-03-03T19:02:38.888Z,69.27
2023-03-03T19:05:19.422Z,68.33
2023-03-03T19:07:52.202Z,67.10
2023-03-03T19:10:49.498Z,71.47
2023-03-03T19:13:48.037Z,75.90
2023-03-03T19:16:37.744Z,73.57
2023-03-03T19:19:13.568Z,71.17
2023-03-03T19:21:42.734Z,76.20
2023-03-03T19:24:29.087Z,75.63
2023-03-03T19:27:13.709Z,78.87
2023-03-03T19:30:22.514Z,72.63
2023-03-03T19:33:12.508Z,76.83
2023-03-03T19:35:50.361Z,82.03
2023-03-03T19:38:32.745Z,89.93
2023-03-03T19:41:12.090Z,85.17
2023-03-03T19:43:48.287Z,88.37
2023-03-03T19:46:33.369Z,90.57
2023-03-03T19:49:11.599Z,85.47
2023-03-03T19:51:48.276Z,86.77
2023-03-03T19:54:26.832Z,84.90
2023-03-03T19:56:56.451Z,88.13
2023-03-03T19:59:32.313Z,89.10
2023-03-03T20:02:28.501Z,89.03
2023-03-03T20:05:13.760Z,90.63
2023-03-03T20:07:48.957Z,97.10
2023-03-03T20:10:34.842Z,99.63
2023-03-03T20:13:13.296Z,96.70
2023-03-03T20:15:51.351Z,96.70
2023-03-03T20:18:38.909Z,99.10
2023-03-03T20:21:17.167Z,103.70
2023-03-03T20:23:57.916Z,86.60
2023-03-03T20:26:32.585Z,96.70
2023-03-03T20:29:31.657Z,95.50
2023-03-03T20:32:11.135Z,88.17
2023-03-03T20:34:49.169Z,99.00
2023-03-03T20:37:26.342Z,87.90
2023-03-03T20:40:05.443Z,85.70
2023-03-03T20:42:44.522Z,85.33
2023-03-03T20:45:29.460Z,85.20
2023-03-03T20:48:12.169Z,82.10
2023-03-03T20:50:52.242Z,74.10
2023-03-03T20:53:28.529Z,82.43
2023-03-03T20:56:04.518Z,85.90
2023-03-03T20:58:43.763Z,82.80
2023-03-03T21:01:15.519Z,86.83
2023-03-03T21:03:45.169Z,88.67
2023-03-03T21:06:16.113Z,86.43
2023-03-03T21:08:49.436Z,85.30
2023-03-03T21:11:18.875Z,88.77
2023-03-03T21:13:49.411Z,85.00
2023-03-03T21:16:31.257Z,79.97
2023-03-03T21:19:00.435Z,77.80
2023-03-03T21:21:30.309Z,82.80
2023-03-03T21:24:00.012Z,81.47
2023-03-03T21:26:48.622Z,86.37
2023-03-03T21:29:25.493Z,88.47
2023-03-03T21:31:55.907Z,69.77
2023-03-03T21:34:29.493Z,85.80
2023-03-03T21:36:57.685Z,77.07
2023-03-03T21:39:29.441Z,77.67
2023-03-03T21:41:59.838Z,74.17
2023-03-03T21:44:32.692Z,75.00
2023-03-03T21:47:00.537Z,69.80
2023-03-03T21:49:28.728Z,78.43
2023-03-03T21:51:57.264Z,76.07
2023-03-03T21:54:25.110Z,77.87
2023-03-03T21:56:55.103Z,74.27
2023-03-03T21:59:22.844Z,70.27
2023-03-03T22:01:50.473Z,75.73
2023-03-03T22:04:18.138Z,68.60
2023-03-03T22:06:46.100Z,70.90
2023-03-03T22:09:13.994Z,65.20
2023-03-03T22:11:41.880Z,66.10
2023-03-03T22:14:11.157Z,60.73
2023-03-03T22:16:38.826Z,63.27
2023-03-03T22:19:09.096Z,64.80
2023-03-03T22:21:37.753Z,62.63
2023-03-03T22:24:06.526Z,55.73
2023-03-03T22:26:35.312Z,58.17
2023-03-03T22:29:03.044Z,61.03
2023-03-03T22:31:32.215Z,63.97
2023-03-03T22:34:00.117Z,54.30
2023-03-03T22:36:27.777Z,62.90
2023-03-03T22:38:55.515Z,55.67
2023-03-03T22:41:23.275Z,60.17
2023-03-03T22:43:50.903Z,52.43
2023-03-03T22:46:18.582Z,55.23
2023-03-03T22:48:47.960Z,58.10
2023-03-03T22:51:15.636Z,54.07
2023-03-03T22:53:43.349Z,46.27
2023-03-03T22:56:10.950Z,52.77
2023-03-03T22:58:38.680Z,46.03
2023-03-03T23:01:06.305Z,45.37
2023-03-03T23:03:34.038Z,43.43
2023-03-03T23:06:03.067Z,42.13
2023-03-03T23:08:30.726Z,46.40
2023-03-03T23:10:58.307Z,46.30
2023-03-03T23:13:27.042Z,44.40
2023-03-03T23:15:58.332Z,43.70
2023-03-03T23:18:26.013Z,43.20
2023-03-03T23:20:53.626Z,41.70
2023-03-03T23:23:23.093Z,44.10
2023-03-03T23:25:50.718Z,37.90
2023-03-03T23:28:19.178Z,40.63
2023-03-03T23:30:46.886Z,40.73
2023-03-03T23:33:14.800Z,41.87
2023-03-03T23:35:42.537Z,43.03
2023-03-03T23:38:15.175Z,36.47
2023-03-03T23:40:46.550Z,33.53
2023-03-03T23:43:14.211Z,42.30
2023-03-03T23:45:41.854Z,37.73
2023-03-03T23:48:09.585Z,39.10
2023-03-03T23:50:37.967Z,37.03
2023-03-03T23:53:06.932Z,37.47
2023-03-03T23:55:34.741Z,35.10
2023-03-03T23:58:03.870Z,38.13
